sensor_id;sensor_type;location;lat;lon;timestamp;temperature;humidity
58261;DHT22;44058;52.898;6.502;2022-08-01T00:01:53;18.40;99.90
58261;DHT22;44058;52.898;6.502;2022-08-01T00:04:19;18.40;99.90
58261;DHT22;44058;52.898;6.502;2022-08-01T00:06:44;18.40;99.90
58261;DHT22;44058;52.898;6.502;2022-08-01T00:09:10;18.40;99.90
58261;DHT22;44058;52.898;6.502;2022-08-01T00:11:36;18.30;99.90
58261;DHT22;44058;52.898;6.502;2022-08-01T00:14:02;18.30;99.90
58261;DHT22;44058;52.898;6.502;2022-08-01T00:16:28;18.30;99.90
58261;DHT22;44058;52.898;6.502;2022-08-01T00:18:54;18.30;99.90
58261;DHT22;44058;52.898;6.502;2022-08-01T00:21:20;18.30;99.90
58261;DHT22;44058;52.898;6.502;2022-08-01T00:23:46;18.30;99.90
58261;DHT22;44058;52.898;6.502;2022-08-01T00:26:12;18.30;99.90
58261;DHT22;44058;52.898;6.502;2022-08-01T00:28:38;18.30;99.90
58261;DHT22;44058;52.898;6.502;2022-08-01T00:31:04;18.30;99.90
58261;DHT22;44058;52.898;6.502;2022-08-01T00:33:30;18.20;99.90
58261;DHT22;44058;52.898;6.502;2022-08-01T00:35:55;18.30;99.90
58261;DHT22;44058;52.898;6.502;2022-08-01T00:38:21;18.30;99.90
58261;DHT22;44058;52.898;6.502;2022-08-01T00:40:47;18.30;99.90
58261;DHT22;44058;52.898;6.502;2022-08-01T00:43:14;18.40;99.90
58261;DHT22;44058;52.898;6.502;2022-08-01T00:45:40;18.40;99.90
58261;DHT22;44058;52.898;6.502;2022-08-01T00:48:06;18.30;99.90
58261;DHT22;44058;52.898;6.502;2022-08-01T00:50:33;18.40;99.90
58261;DHT22;44058;52.898;6.502;2022-08-01T00:53:00;18.30;99.90
58261;DHT22;44058;52.898;6.502;2022-08-01T00:55:27;18.30;99.90
58261;DHT22;44058;52.898;6.502;2022-08-01T00:57:55;18.30;99.90
58261;DHT22;44058;52.898;6.502;2022-08-01T01:00:21;18.30;99.90
58261;DHT22;44058;52.898;6.502;2022-08-01T01:02:47;18.30;99.90
58261;DHT22;44058;52.898;6.502;2022-08-01T01:05:13;18.20;99.90
58261;DHT22;44058;52.898;6.502;2022-08-01T01:08:05;18.30;99.90
58261;DHT22;44058;52.898;6.502;2022-08-01T01:10:56;18.20;99.90
58261;DHT22;44058;52.898;6.502;2022-08-01T01:13:30;18.20;99.90
58261;DHT22;44058;52.898;6.502;2022-08-01T01:16:02;18.20;99.90
58261;DHT22;44058;52.898;6.502;2022-08-01T01:18:37;18.20;99.90
58261;DHT22;44058;52.898;6.502;2022-08-01T01:23:50;18.20;99.90
58261;DHT22;44058;52.898;6.502;2022-08-01T01:26:28;18.30;99.90
58261;DHT22;44058;52.898;6.502;2022-08-01T01:29:05;18.30;99.90
58261;DHT22;44058;52.898;6.502;2022-08-01T01:31:46;18.30;99.90
58261;DHT22;44058;52.898;6.502;2022-08-01T01:34:13;18.30;99.90
58261;DHT22;44058;52.898;6.502;2022-08-01T01:36:43;18.30;99.90
58261;DHT22;44058;52.898;6.502;2022-08-01T01:39:10;18.30;99.90
58261;DHT22;44058;52.898;6.502;2022-08-01T01:41:37;18.30;99.90
58261;DHT22;44058;52.898;6.502;2022-08-01T01:44:04;18.30;99.90
58261;DHT22;44058;52.898;6.502;2022-08-01T01:46:31;18.40;99.90
58261;DHT22;44058;52.898;6.502;2022-08-01T01:48:58;18.40;99.90
58261;DHT22;44058;52.898;6.502;2022-08-01T01:51:25;18.40;99.90
58261;DHT22;44058;52.898;6.502;2022-08-01T01:53:53;18.40;99.90
58261;DHT22;44058;52.898;6.502;2022-08-01T01:56:20;18.40;99.90
58261;DHT22;44058;52.898;6.502;2022-08-01T01:58:51;18.40;99.90
58261;DHT22;44058;52.898;6.502;2022-08-01T02:01:20;18.40;99.90
58261;DHT22;44058;52.898;6.502;2022-08-01T02:03:48;18.50;99.90
58261;DHT22;44058;52.898;6.502;2022-08-01T02:06:15;18.40;99.90
58261;DHT22;44058;52.898;6.502;2022-08-01T02:08:42;18.50;99.90
58261;DHT22;44058;52.898;6.502;2022-08-01T02:11:09;18.50;99.90
58261;DHT22;44058;52.898;6.502;2022-08-01T02:13:49;18.50;99.90
58261;DHT22;44058;52.898;6.502;2022-08-01T02:16:19;18.50;99.90
58261;DHT22;44058;52.898;6.502;2022-08-01T02:18:46;18.50;99.90
58261;DHT22;44058;52.898;6.502;2022-08-01T02:21:13;18.50;99.90
58261;DHT22;44058;52.898;6.502;2022-08-01T02:23:42;18.50;99.90
58261;DHT22;44058;52.898;6.502;2022-08-01T02:26:10;18.50;99.90
58261;DHT22;44058;52.898;6.502;2022-08-01T02:29:00;18.50;99.90
58261;DHT22;44058;52.898;6.502;2022-08-01T02:31:32;18.50;99.90
58261;DHT22;44058;52.898;6.502;2022-08-01T02:34:04;18.60;99.90
58261;DHT22;44058;52.898;6.502;2022-08-01T02:36:33;18.50;99.90
58261;DHT22;44058;52.898;6.502;2022-08-01T02:39:03;18.60;99.90
58261;DHT22;44058;52.898;6.502;2022-08-01T02:41:30;18.60;99.90
58261;DHT22;44058;52.898;6.502;2022-08-01T02:43:59;18.50;99.90
58261;DHT22;44058;52.898;6.502;2022-08-01T02:46:41;18.50;99.90
58261;DHT22;44058;52.898;6.502;2022-08-01T02:49:09;18.50;99.90
58261;DHT22;44058;52.898;6.502;2022-08-01T02:51:36;18.50;99.90
58261;DHT22;44058;52.898;6.502;2022-08-01T02:54:05;18.50;99.90
58261;DHT22;44058;52.898;6.502;2022-08-01T02:56:32;18.50;99.90
58261;DHT22;44058;52.898;6.502;2022-08-01T02:59:05;18.40;99.90
58261;DHT22;44058;52.898;6.502;2022-08-01T03:01:34;18.40;99.90
58261;DHT22;44058;52.898;6.502;2022-08-01T03:04:00;18.40;99.90
58261;DHT22;44058;52.898;6.502;2022-08-01T03:06:27;18.40;99.90
58261;DHT22;44058;52.898;6.502;2022-08-01T03:08:55;18.30;99.90
58261;DHT22;44058;52.898;6.502;2022-08-01T03:11:23;18.30;99.90
58261;DHT22;44058;52.898;6.502;2022-08-01T03:13:50;18.30;99.90
58261;DHT22;44058;52.898;6.502;2022-08-01T03:16:18;18.40;99.90
58261;DHT22;44058;52.898;6.502;2022-08-01T03:18:44;18.30;99.90
58261;DHT22;44058;52.898;6.502;2022-08-01T03:21:12;18.40;99.90
58261;DHT22;44058;52.898;6.502;2022-08-01T03:23:40;18.30;99.90
58261;DHT22;44058;52.898;6.502;2022-08-01T03:26:07;18.30;99.90
58261;DHT22;44058;52.898;6.502;2022-08-01T03:28:33;18.30;99.90
58261;DHT22;44058;52.898;6.502;2022-08-01T03:31:01;18.30;99.90
58261;DHT22;44058;52.898;6.502;2022-08-01T03:33:28;18.30;99.90
58261;DHT22;44058;52.898;6.502;2022-08-01T03:35:54;18.30;99.90
58261;DHT22;44058;52.898;6.502;2022-08-01T03:38:25;18.30;99.90
58261;DHT22;44058;52.898;6.502;2022-08-01T03:41:25;18.30;99.90
58261;DHT22;44058;52.898;6.502;2022-08-01T03:43:58;18.30;99.90
58261;DHT22;44058;52.898;6.502;2022-08-01T03:46:46;18.30;99.90
58261;DHT22;44058;52.898;6.502;2022-08-01T03:49:18;18.20;99.90
58261;DHT22;44058;52.898;6.502;2022-08-01T03:51:47;18.20;99.90
58261;DHT22;44058;52.898;6.502;2022-08-01T03:54:16;18.10;99.90
58261;DHT22;44058;52.898;6.502;2022-08-01T03:56:43;18.10;99.90
58261;DHT22;44058;52.898;6.502;2022-08-01T03:59:12;18.00;99.90
58261;DHT22;44058;52.898;6.502;2022-08-01T04:01:39;18.00;99.90
58261;DHT22;44058;52.898;6.502;2022-08-01T04:04:05;18.00;99.90
58261;DHT22;44058;52.898;6.502;2022-08-01T04:06:31;18.00;99.90
58261;DHT22;44058;52.898;6.502;2022-08-01T04:08:57;18.00;99.90
58261;DHT22;44058;52.898;6.502;2022-08-01T04:11:27;18.00;99.90
58261;DHT22;44058;52.898;6.502;2022-08-01T04:13:54;18.00;99.90
58261;DHT22;44058;52.898;6.502;2022-08-01T04:16:21;18.00;99.90
58261;DHT22;44058;52.898;6.502;2022-08-01T04:18:47;18.00;99.90
58261;DHT22;44058;52.898;6.502;2022-08-01T04:21:13;18.00;99.90
58261;DHT22;44058;52.898;6.502;2022-08-01T04:23:41;17.90;99.90
58261;DHT22;44058;52.898;6.502;2022-08-01T04:26:09;17.80;99.90
58261;DHT22;44058;52.898;6.502;2022-08-01T04:28:37;17.80;99.90
58261;DHT22;44058;52.898;6.502;2022-08-01T04:31:06;17.80;99.90
58261;DHT22;44058;52.898;6.502;2022-08-01T04:33:35;17.80;99.90
58261;DHT22;44058;52.898;6.502;2022-08-01T04:36:06;17.80;99.90
58261;DHT22;44058;52.898;6.502;2022-08-01T04:38:34;17.80;99.90
58261;DHT22;44058;52.898;6.502;2022-08-01T04:41:02;17.90;99.90
58261;DHT22;44058;52.898;6.502;2022-08-01T04:43:28;17.90;99.90
58261;DHT22;44058;52.898;6.502;2022-08-01T04:45:55;17.90;99.90
58261;DHT22;44058;52.898;6.502;2022-08-01T04:48:21;17.90;99.90
58261;DHT22;44058;52.898;6.502;2022-08-01T04:50:50;17.90;99.90
58261;DHT22;44058;52.898;6.502;2022-08-01T04:53:17;18.00;99.90
58261;DHT22;44058;52.898;6.502;2022-08-01T04:55:44;18.00;99.90
58261;DHT22;44058;52.898;6.502;2022-08-01T04:58:11;18.00;99.90
58261;DHT22;44058;52.898;6.502;2022-08-01T05:00:37;18.00;99.90
58261;DHT22;44058;52.898;6.502;2022-08-01T05:03:03;18.00;99.90
58261;DHT22;44058;52.898;6.502;2022-08-01T05:05:29;18.00;99.90
58261;DHT22;44058;52.898;6.502;2022-08-01T05:07:56;18.00;99.90
58261;DHT22;44058;52.898;6.502;2022-08-01T05:10:22;18.00;99.90
58261;DHT22;44058;52.898;6.502;2022-08-01T05:12:47;18.10;99.90
58261;DHT22;44058;52.898;6.502;2022-08-01T05:15:13;18.10;99.90
58261;DHT22;44058;52.898;6.502;2022-08-01T05:17:39;18.00;99.90
58261;DHT22;44058;52.898;6.502;2022-08-01T05:20:05;18.00;99.90
58261;DHT22;44058;52.898;6.502;2022-08-01T05:22:32;18.00;99.90
58261;DHT22;44058;52.898;6.502;2022-08-01T05:24:57;18.00;99.90
58261;DHT22;44058;52.898;6.502;2022-08-01T05:27:25;18.00;99.90
58261;DHT22;44058;52.898;6.502;2022-08-01T05:29:51;18.00;99.90
58261;DHT22;44058;52.898;6.502;2022-08-01T05:32:17;18.00;99.90
58261;DHT22;44058;52.898;6.502;2022-08-01T05:34:43;18.00;99.90
58261;DHT22;44058;52.898;6.502;2022-08-01T05:37:09;17.90;99.90
58261;DHT22;44058;52.898;6.502;2022-08-01T05:39:35;17.80;99.90
58261;DHT22;44058;52.898;6.502;2022-08-01T05:42:00;17.80;99.90
58261;DHT22;44058;52.898;6.502;2022-08-01T05:44:26;17.80;99.90
58261;DHT22;44058;52.898;6.502;2022-08-01T05:46:52;17.90;99.90
58261;DHT22;44058;52.898;6.502;2022-08-01T05:49:18;17.80;99.90
58261;DHT22;44058;52.898;6.502;2022-08-01T05:51:43;17.90;99.90
58261;DHT22;44058;52.898;6.502;2022-08-01T05:54:09;17.90;99.90
58261;DHT22;44058;52.898;6.502;2022-08-01T05:56:35;17.90;99.90
58261;DHT22;44058;52.898;6.502;2022-08-01T05:59:00;17.90;99.90
58261;DHT22;44058;52.898;6.502;2022-08-01T06:01:27;18.00;99.90
58261;DHT22;44058;52.898;6.502;2022-08-01T06:03:52;18.00;99.90
58261;DHT22;44058;52.898;6.502;2022-08-01T06:06:20;18.00;99.90
58261;DHT22;44058;52.898;6.502;2022-08-01T06:08:47;18.00;99.90
58261;DHT22;44058;52.898;6.502;2022-08-01T06:11:12;18.00;99.90
58261;DHT22;44058;52.898;6.502;2022-08-01T06:13:38;18.00;99.90
58261;DHT22;44058;52.898;6.502;2022-08-01T06:16:04;18.00;99.90
58261;DHT22;44058;52.898;6.502;2022-08-01T06:18:30;18.00;99.90
58261;DHT22;44058;52.898;6.502;2022-08-01T06:20:56;18.00;99.90
58261;DHT22;44058;52.898;6.502;2022-08-01T06:23:22;18.10;99.90
58261;DHT22;44058;52.898;6.502;2022-08-01T06:25:48;18.00;99.90
58261;DHT22;44058;52.898;6.502;2022-08-01T06:28:14;18.00;99.90
58261;DHT22;44058;52.898;6.502;2022-08-01T06:30:39;18.00;99.90
58261;DHT22;44058;52.898;6.502;2022-08-01T06:33:05;18.00;99.90
58261;DHT22;44058;52.898;6.502;2022-08-01T06:35:31;18.00;99.90
58261;DHT22;44058;52.898;6.502;2022-08-01T06:37:57;18.00;99.90
58261;DHT22;44058;52.898;6.502;2022-08-01T06:40:23;18.00;99.90
58261;DHT22;44058;52.898;6.502;2022-08-01T06:42:49;18.00;99.90
58261;DHT22;44058;52.898;6.502;2022-08-01T06:45:15;18.00;99.90
58261;DHT22;44058;52.898;6.502;2022-08-01T06:47:42;17.90;99.90
58261;DHT22;44058;52.898;6.502;2022-08-01T06:50:09;18.00;99.90
58261;DHT22;44058;52.898;6.502;2022-08-01T06:52:36;18.00;99.90
58261;DHT22;44058;52.898;6.502;2022-08-01T06:55:02;18.00;99.90
58261;DHT22;44058;52.898;6.502;2022-08-01T06:57:28;18.00;99.90
58261;DHT22;44058;52.898;6.502;2022-08-01T06:59:55;17.90;99.90
58261;DHT22;44058;52.898;6.502;2022-08-01T07:02:22;17.90;99.90
58261;DHT22;44058;52.898;6.502;2022-08-01T07:04:48;17.90;99.90
58261;DHT22;44058;52.898;6.502;2022-08-01T07:07:14;17.90;99.90
58261;DHT22;44058;52.898;6.502;2022-08-01T07:09:40;17.90;99.90
58261;DHT22;44058;52.898;6.502;2022-08-01T07:12:08;17.90;99.90
58261;DHT22;44058;52.898;6.502;2022-08-01T07:14:34;17.90;99.90
58261;DHT22;44058;52.898;6.502;2022-08-01T07:17:00;17.90;99.90
58261;DHT22;44058;52.898;6.502;2022-08-01T07:19:26;17.90;99.90
58261;DHT22;44058;52.898;6.502;2022-08-01T07:21:52;17.90;99.90
58261;DHT22;44058;52.898;6.502;2022-08-01T07:24:18;17.90;99.90
58261;DHT22;44058;52.898;6.502;2022-08-01T07:26:46;18.00;99.90
58261;DHT22;44058;52.898;6.502;2022-08-01T07:29:12;18.00;99.90
58261;DHT22;44058;52.898;6.502;2022-08-01T07:31:39;18.00;99.90
58261;DHT22;44058;52.898;6.502;2022-08-01T07:34:05;18.10;99.90
58261;DHT22;44058;52.898;6.502;2022-08-01T07:36:31;18.10;99.90
58261;DHT22;44058;52.898;6.502;2022-08-01T07:38:56;18.10;99.90
58261;DHT22;44058;52.898;6.502;2022-08-01T07:41:22;18.10;99.90
58261;DHT22;44058;52.898;6.502;2022-08-01T07:43:48;18.10;99.90
58261;DHT22;44058;52.898;6.502;2022-08-01T07:46:15;18.10;99.90
58261;DHT22;44058;52.898;6.502;2022-08-01T07:48:41;18.10;99.90
58261;DHT22;44058;52.898;6.502;2022-08-01T07:51:10;18.10;99.90
58261;DHT22;44058;52.898;6.502;2022-08-01T07:53:44;18.20;99.90
58261;DHT22;44058;52.898;6.502;2022-08-01T07:56:09;18.20;99.90
58261;DHT22;44058;52.898;6.502;2022-08-01T07:58:35;18.30;99.90
58261;DHT22;44058;52.898;6.502;2022-08-01T08:01:01;18.30;99.90
58261;DHT22;44058;52.898;6.502;2022-08-01T08:03:27;18.40;99.90
58261;DHT22;44058;52.898;6.502;2022-08-01T08:05:53;18.40;99.90
58261;DHT22;44058;52.898;6.502;2022-08-01T08:08:19;18.30;99.90
58261;DHT22;44058;52.898;6.502;2022-08-01T08:10:45;18.40;99.90
58261;DHT22;44058;52.898;6.502;2022-08-01T08:13:11;18.40;99.90
58261;DHT22;44058;52.898;6.502;2022-08-01T08:15:36;18.40;99.90
58261;DHT22;44058;52.898;6.502;2022-08-01T08:18:05;18.50;99.90
58261;DHT22;44058;52.898;6.502;2022-08-01T08:20:31;18.60;99.90
58261;DHT22;44058;52.898;6.502;2022-08-01T08:22:57;18.70;99.90
58261;DHT22;44058;52.898;6.502;2022-08-01T08:25:24;18.90;99.90
58261;DHT22;44058;52.898;6.502;2022-08-01T08:27:51;19.00;99.90
58261;DHT22;44058;52.898;6.502;2022-08-01T08:30:17;19.10;99.90
58261;DHT22;44058;52.898;6.502;2022-08-01T08:32:43;19.10;99.90
58261;DHT22;44058;52.898;6.502;2022-08-01T08:35:09;19.10;99.90
58261;DHT22;44058;52.898;6.502;2022-08-01T08:37:36;19.20;99.90
58261;DHT22;44058;52.898;6.502;2022-08-01T08:40:06;19.20;99.90
58261;DHT22;44058;52.898;6.502;2022-08-01T08:42:32;19.20;99.90
58261;DHT22;44058;52.898;6.502;2022-08-01T08:44:58;19.20;99.90
58261;DHT22;44058;52.898;6.502;2022-08-01T08:47:24;19.30;99.90
58261;DHT22;44058;52.898;6.502;2022-08-01T08:49:52;19.30;99.90
58261;DHT22;44058;52.898;6.502;2022-08-01T08:52:20;19.30;99.90
58261;DHT22;44058;52.898;6.502;2022-08-01T08:54:47;19.40;99.90
58261;DHT22;44058;52.898;6.502;2022-08-01T08:57:14;19.40;99.90
58261;DHT22;44058;52.898;6.502;2022-08-01T08:59:40;19.50;99.90
58261;DHT22;44058;52.898;6.502;2022-08-01T09:02:08;19.60;99.90
58261;DHT22;44058;52.898;6.502;2022-08-01T09:04:36;19.80;99.90
58261;DHT22;44058;52.898;6.502;2022-08-01T09:07:04;19.80;99.90
58261;DHT22;44058;52.898;6.502;2022-08-01T09:09:31;19.90;99.90
58261;DHT22;44058;52.898;6.502;2022-08-01T09:11:57;20.00;99.90
58261;DHT22;44058;52.898;6.502;2022-08-01T09:14:24;20.10;99.90
58261;DHT22;44058;52.898;6.502;2022-08-01T09:17:07;20.00;99.90
58261;DHT22;44058;52.898;6.502;2022-08-01T09:19:48;20.10;99.90
58261;DHT22;44058;52.898;6.502;2022-08-01T09:22:16;20.10;99.90
58261;DHT22;44058;52.898;6.502;2022-08-01T09:27:31;20.20;99.90
58261;DHT22;44058;52.898;6.502;2022-08-01T09:30:12;20.20;99.90
58261;DHT22;44058;52.898;6.502;2022-08-01T09:33:01;20.10;99.90
58261;DHT22;44058;52.898;6.502;2022-08-01T09:35:29;20.10;99.90
58261;DHT22;44058;52.898;6.502;2022-08-01T09:38:17;20.10;99.90
58261;DHT22;44058;52.898;6.502;2022-08-01T09:40:56;20.20;99.90
58261;DHT22;44058;52.898;6.502;2022-08-01T09:43:29;20.20;99.90
58261;DHT22;44058;52.898;6.502;2022-08-01T09:45:58;20.20;99.90
58261;DHT22;44058;52.898;6.502;2022-08-01T09:48:24;20.30;99.90
58261;DHT22;44058;52.898;6.502;2022-08-01T09:50:51;20.30;99.90
58261;DHT22;44058;52.898;6.502;2022-08-01T09:53:18;20.40;99.90
58261;DHT22;44058;52.898;6.502;2022-08-01T09:55:44;20.40;99.90
58261;DHT22;44058;52.898;6.502;2022-08-01T09:58:10;20.50;99.90
58261;DHT22;44058;52.898;6.502;2022-08-01T10:00:38;20.50;99.90
58261;DHT22;44058;52.898;6.502;2022-08-01T10:03:24;20.40;99.90
58261;DHT22;44058;52.898;6.502;2022-08-01T10:05:52;20.40;99.90
58261;DHT22;44058;52.898;6.502;2022-08-01T10:08:19;20.30;99.90
58261;DHT22;44058;52.898;6.502;2022-08-01T10:11:07;20.40;99.90
58261;DHT22;44058;52.898;6.502;2022-08-01T10:13:33;20.30;99.90
58261;DHT22;44058;52.898;6.502;2022-08-01T10:16:00;20.30;99.90
58261;DHT22;44058;52.898;6.502;2022-08-01T10:18:26;20.30;99.90
58261;DHT22;44058;52.898;6.502;2022-08-01T10:20:54;20.50;99.90
58261;DHT22;44058;52.898;6.502;2022-08-01T10:23:21;20.70;99.90
58261;DHT22;44058;52.898;6.502;2022-08-01T10:25:47;20.80;99.90
58261;DHT22;44058;52.898;6.502;2022-08-01T10:28:15;21.00;99.90
58261;DHT22;44058;52.898;6.502;2022-08-01T10:30:45;21.10;99.90
58261;DHT22;44058;52.898;6.502;2022-08-01T10:33:12;21.10;99.90
58261;DHT22;44058;52.898;6.502;2022-08-01T10:35:39;21.10;99.90
58261;DHT22;44058;52.898;6.502;2022-08-01T10:38:06;21.20;99.90
58261;DHT22;44058;52.898;6.502;2022-08-01T10:40:32;21.20;99.90
58261;DHT22;44058;52.898;6.502;2022-08-01T10:42:58;21.30;99.90
58261;DHT22;44058;52.898;6.502;2022-08-01T10:45:24;21.40;99.90
58261;DHT22;44058;52.898;6.502;2022-08-01T10:48:09;21.40;99.90
58261;DHT22;44058;52.898;6.502;2022-08-01T10:50:44;21.40;99.90
58261;DHT22;44058;52.898;6.502;2022-08-01T10:53:19;21.40;99.90
58261;DHT22;44058;52.898;6.502;2022-08-01T10:58:31;21.30;99.90
58261;DHT22;44058;52.898;6.502;2022-08-01T11:03:44;21.30;99.90
58261;DHT22;44058;52.898;6.502;2022-08-01T11:06:17;21.20;99.90
58261;DHT22;44058;52.898;6.502;2022-08-01T11:08:52;21.30;99.90
58261;DHT22;44058;52.898;6.502;2022-08-01T11:11:20;21.50;99.90
58261;DHT22;44058;52.898;6.502;2022-08-01T11:14:02;21.70;99.90
58261;DHT22;44058;52.898;6.502;2022-08-01T11:16:35;21.60;99.90
58261;DHT22;44058;52.898;6.502;2022-08-01T11:19:02;21.70;99.90
58261;DHT22;44058;52.898;6.502;2022-08-01T11:25:02;21.70;99.90
58261;DHT22;44058;52.898;6.502;2022-08-01T11:27:31;21.80;99.90
58261;DHT22;44058;52.898;6.502;2022-08-01T11:32:51;21.90;99.90
58261;DHT22;44058;52.898;6.502;2022-08-01T11:35:18;21.90;99.90
58261;DHT22;44058;52.898;6.502;2022-08-01T11:37:46;21.90;99.90
58261;DHT22;44058;52.898;6.502;2022-08-01T11:40:28;21.90;99.90
58261;DHT22;44058;52.898;6.502;2022-08-01T11:45:51;22.00;99.90
58261;DHT22;44058;52.898;6.502;2022-08-01T11:48:19;22.10;99.90
58261;DHT22;44058;52.898;6.502;2022-08-01T11:50:45;22.20;99.90
58261;DHT22;44058;52.898;6.502;2022-08-01T11:53:11;22.10;99.90
58261;DHT22;44058;52.898;6.502;2022-08-01T11:55:51;22.20;99.90
58261;DHT22;44058;52.898;6.502;2022-08-01T11:58:26;22.30;99.90
58261;DHT22;44058;52.898;6.502;2022-08-01T12:00:54;22.20;99.90
58261;DHT22;44058;52.898;6.502;2022-08-01T12:03:38;22.30;99.90
58261;DHT22;44058;52.898;6.502;2022-08-01T12:06:04;22.30;99.90
58261;DHT22;44058;52.898;6.502;2022-08-01T12:08:32;22.30;99.90
58261;DHT22;44058;52.898;6.502;2022-08-01T12:11:00;22.30;99.90
58261;DHT22;44058;52.898;6.502;2022-08-01T12:13:26;22.30;99.90
58261;DHT22;44058;52.898;6.502;2022-08-01T12:15:52;22.30;99.90
58261;DHT22;44058;52.898;6.502;2022-08-01T12:18:19;22.30;99.90
58261;DHT22;44058;52.898;6.502;2022-08-01T12:20:46;22.30;99.90
58261;DHT22;44058;52.898;6.502;2022-08-01T12:23:14;22.40;99.90
58261;DHT22;44058;52.898;6.502;2022-08-01T12:25:41;22.40;99.90
58261;DHT22;44058;52.898;6.502;2022-08-01T12:28:10;22.50;99.90
58261;DHT22;44058;52.898;6.502;2022-08-01T12:30:38;22.40;99.90
58261;DHT22;44058;52.898;6.502;2022-08-01T12:33:06;22.20;99.90
58261;DHT22;44058;52.898;6.502;2022-08-01T12:35:33;22.20;99.90
58261;DHT22;44058;52.898;6.502;2022-08-01T12:38:05;22.00;99.90
58261;DHT22;44058;52.898;6.502;2022-08-01T12:40:36;22.00;99.90
58261;DHT22;44058;52.898;6.502;2022-08-01T12:43:09;22.10;99.90
58261;DHT22;44058;52.898;6.502;2022-08-01T12:45:42;22.10;99.90
58261;DHT22;44058;52.898;6.502;2022-08-01T12:48:11;22.20;99.90
58261;DHT22;44058;52.898;6.502;2022-08-01T12:50:37;22.30;99.90
58261;DHT22;44058;52.898;6.502;2022-08-01T12:53:04;22.50;99.90
58261;DHT22;44058;52.898;6.502;2022-08-01T12:55:30;22.40;99.90
58261;DHT22;44058;52.898;6.502;2022-08-01T12:58:21;22.30;99.90
58261;DHT22;44058;52.898;6.502;2022-08-01T13:00:49;22.20;99.90
58261;DHT22;44058;52.898;6.502;2022-08-01T13:03:16;22.20;99.90
58261;DHT22;44058;52.898;6.502;2022-08-01T13:10:44;22.70;99.90
58261;DHT22;44058;52.898;6.502;2022-08-01T13:13:10;22.80;99.90
58261;DHT22;44058;52.898;6.502;2022-08-01T13:15:38;23.00;99.90
58261;DHT22;44058;52.898;6.502;2022-08-01T13:18:28;23.10;99.90
58261;DHT22;44058;52.898;6.502;2022-08-01T13:23:39;22.90;99.90
58261;DHT22;44058;52.898;6.502;2022-08-01T13:26:05;22.60;99.90
58261;DHT22;44058;52.898;6.502;2022-08-01T13:28:32;22.50;99.90
58261;DHT22;44058;52.898;6.502;2022-08-01T13:31:01;22.30;99.90
58261;DHT22;44058;52.898;6.502;2022-08-01T13:33:28;22.30;99.90
58261;DHT22;44058;52.898;6.502;2022-08-01T13:36:05;22.30;99.90
58261;DHT22;44058;52.898;6.502;2022-08-01T13:38:31;22.40;99.90
58261;DHT22;44058;52.898;6.502;2022-08-01T13:41:15;22.50;99.90
58261;DHT22;44058;52.898;6.502;2022-08-01T13:43:41;22.60;99.90
58261;DHT22;44058;52.898;6.502;2022-08-01T13:46:07;22.70;99.90
58261;DHT22;44058;52.898;6.502;2022-08-01T13:48:32;22.80;99.90
58261;DHT22;44058;52.898;6.502;2022-08-01T13:50:58;22.80;99.90
58261;DHT22;44058;52.898;6.502;2022-08-01T13:53:24;22.80;99.90
58261;DHT22;44058;52.898;6.502;2022-08-01T13:55:50;22.80;99.90
58261;DHT22;44058;52.898;6.502;2022-08-01T13:58:16;22.70;99.90
58261;DHT22;44058;52.898;6.502;2022-08-01T14:00:42;22.60;99.90
58261;DHT22;44058;52.898;6.502;2022-08-01T14:03:07;22.70;99.90
58261;DHT22;44058;52.898;6.502;2022-08-01T14:05:35;22.60;99.90
58261;DHT22;44058;52.898;6.502;2022-08-01T14:08:02;22.60;99.90
58261;DHT22;44058;52.898;6.502;2022-08-01T14:10:28;22.50;99.90
58261;DHT22;44058;52.898;6.502;2022-08-01T14:12:58;22.50;99.90
58261;DHT22;44058;52.898;6.502;2022-08-01T14:15:24;22.40;99.90
58261;DHT22;44058;52.898;6.502;2022-08-01T14:17:50;22.50;99.90
58261;DHT22;44058;52.898;6.502;2022-08-01T14:20:16;22.40;99.90
58261;DHT22;44058;52.898;6.502;2022-08-01T14:22:48;22.40;99.90
58261;DHT22;44058;52.898;6.502;2022-08-01T14:25:14;22.50;99.90
58261;DHT22;44058;52.898;6.502;2022-08-01T14:27:39;22.50;99.90
58261;DHT22;44058;52.898;6.502;2022-08-01T14:30:08;22.70;99.90
58261;DHT22;44058;52.898;6.502;2022-08-01T14:32:34;22.60;99.90
58261;DHT22;44058;52.898;6.502;2022-08-01T14:35:04;22.60;99.90
58261;DHT22;44058;52.898;6.502;2022-08-01T14:37:31;22.80;99.90
58261;DHT22;44058;52.898;6.502;2022-08-01T14:39:57;22.80;99.90
58261;DHT22;44058;52.898;6.502;2022-08-01T14:42:23;22.80;99.90
58261;DHT22;44058;52.898;6.502;2022-08-01T14:44:49;22.90;99.90
58261;DHT22;44058;52.898;6.502;2022-08-01T14:47:15;22.80;99.90
58261;DHT22;44058;52.898;6.502;2022-08-01T14:49:40;22.80;99.90
58261;DHT22;44058;52.898;6.502;2022-08-01T14:52:06;22.70;99.90
58261;DHT22;44058;52.898;6.502;2022-08-01T14:54:32;22.60;99.90
58261;DHT22;44058;52.898;6.502;2022-08-01T14:56:58;22.60;99.90
58261;DHT22;44058;52.898;6.502;2022-08-01T14:59:24;22.60;99.90
58261;DHT22;44058;52.898;6.502;2022-08-01T15:01:49;22.60;99.90
58261;DHT22;44058;52.898;6.502;2022-08-01T15:04:15;22.50;99.90
58261;DHT22;44058;52.898;6.502;2022-08-01T15:06:43;22.40;99.90
58261;DHT22;44058;52.898;6.502;2022-08-01T15:09:08;22.40;99.90
58261;DHT22;44058;52.898;6.502;2022-08-01T15:11:34;22.50;99.90
58261;DHT22;44058;52.898;6.502;2022-08-01T15:14:00;22.40;99.90
58261;DHT22;44058;52.898;6.502;2022-08-01T15:16:45;22.50;99.90
58261;DHT22;44058;52.898;6.502;2022-08-01T15:19:10;22.60;99.90
58261;DHT22;44058;52.898;6.502;2022-08-01T15:21:39;22.60;99.90
58261;DHT22;44058;52.898;6.502;2022-08-01T15:24:05;22.40;99.90
58261;DHT22;44058;52.898;6.502;2022-08-01T15:26:30;22.60;99.90
58261;DHT22;44058;52.898;6.502;2022-08-01T15:28:56;22.60;99.90
58261;DHT22;44058;52.898;6.502;2022-08-01T15:31:22;22.60;99.90
58261;DHT22;44058;52.898;6.502;2022-08-01T15:33:48;22.70;99.90
58261;DHT22;44058;52.898;6.502;2022-08-01T15:36:13;22.60;99.90
58261;DHT22;44058;52.898;6.502;2022-08-01T15:38:39;22.80;99.90
58261;DHT22;44058;52.898;6.502;2022-08-01T15:41:05;22.90;99.90
58261;DHT22;44058;52.898;6.502;2022-08-01T15:43:30;22.90;99.90
58261;DHT22;44058;52.898;6.502;2022-08-01T15:45:57;22.90;99.90
58261;DHT22;44058;52.898;6.502;2022-08-01T15:48:23;22.80;99.90
58261;DHT22;44058;52.898;6.502;2022-08-01T15:50:48;22.70;99.90
58261;DHT22;44058;52.898;6.502;2022-08-01T15:53:23;22.60;99.90
58261;DHT22;44058;52.898;6.502;2022-08-01T15:55:48;22.70;99.90
58261;DHT22;44058;52.898;6.502;2022-08-01T15:58:14;22.70;99.90
58261;DHT22;44058;52.898;6.502;2022-08-01T16:00:42;22.70;99.90
58261;DHT22;44058;52.898;6.502;2022-08-01T16:03:10;22.70;99.90
58261;DHT22;44058;52.898;6.502;2022-08-01T16:05:36;22.60;99.90